Sardinia Vera — IBWV — position and weather

sailwx.info

Track history (hours):
 
Tides and Currents Weather Stations Pressure Air Temp Water Temp Dewpoint Dewpoint Depression Visibility Wind Speed Wind Dir Waves Ship Positions

Sardinia Vera

Last reported at 2015-Sep-03 16:26 UTC. Time now 2015-Sep-03 17:17 UTC.
Position N 43°08' E 008°02'.

; draft 5.3 m.

Type: Passenger vessel. MMSI: 247392000.

Date/timePositionNaut miles runAvg speedWind from/ knotsBaromVisibWave heightAir tempDewpointWater temp
2015-Sep-03 16:26N 43°08' E 008°02'1617.0
2015-Sep-03 15:31N 42°57' E 008°17'60 6.5
2015-Sep-03 06:21N 43°39' E 007°19'3 3.3
2015-Sep-03 05:34N 43°42' E 007°17'0 0.0
2015-Sep-03 04:14N 43°42' E 007°17'0 0.0
2015-Sep-03 03:34N 43°42' E 007°17'0 0.0
2015-Sep-03 02:33N 43°42' E 007°17'0 0.0
2015-Sep-03 01:26N 43°42' E 007°17'0 0.0
2015-Sep-03 00:34N 43°42' E 007°17'0 0.0
2015-Sep-02 23:33N 43°42' E 007°17'0 0.0
2015-Sep-02 22:33N 43°42' E 007°17'0 0.0
2015-Sep-02 21:34N 43°42' E 007°17'0 0.0
2015-Sep-02 20:33N 43°42' E 007°17'0 0.0
2015-Sep-02 19:28N 43°42' E 007°17'1313.6
2015-Sep-02 18:30N 43°32' E 007°29'8 0.6
2015-Sep-02 06:33N 43°37' E 007°21'6 5.5
2015-Sep-02 05:33N 43°42' E 007°17'0 0.0
2015-Sep-02 04:33N 43°42' E 007°17'0 0.0
2015-Sep-02 03:33N 43°42' E 007°17'0 0.0
2015-Sep-02 02:31N 43°42' E 007°17'0 0.0
2015-Sep-02 01:33N 43°42' E 007°17'0 0.0
2015-Sep-02 00:33N 43°42' E 007°17'0 0.0
2015-Sep-01 23:33N 43°42' E 007°17'0 0.0
2015-Sep-01 22:26N 43°42' E 007°17'0 0.0
2015-Sep-01 20:22N 43°42' E 007°17'5 3.0
2015-Sep-01 18:33N 43°37' E 007°21'4016.8
2015-Sep-01 16:11N 43°09' E 008°00'27 3.0
2015-Sep-01 07:17N 43°28' E 007°34'1217.1
2015-Sep-01 06:33N 43°37' E 007°22'6 4.9
2015-Sep-01 05:18N 43°42' E 007°17'0 0.0
2015-Sep-01 04:30N 43°42' E 007°17'0 0.0
2015-Sep-01 03:18N 43°42' E 007°17'0 0.0
2015-Sep-01 02:30N 43°42' E 007°17'0 0.0
2015-Aug-31 23:30N 43°42' E 007°17'0 0.0
2015-Aug-31 22:30N 43°42' E 007°17'0 0.0
2015-Aug-31 20:30N 43°42' E 007°17'0 0.0
2015-Aug-31 19:30N 43°42' E 007°17'0 0.0
2015-Aug-31 18:30N 43°42' E 007°17'0 0.0
2015-Aug-31 17:33N 43°42' E 007°17'0 0.0
2015-Aug-31 16:32N 43°42' E 007°17'0 0.0
2015-Aug-31 15:33N 43°42' E 007°17'1 0.5
2015-Aug-31 14:33N 43°41' E 007°17'1615.7
2015-Aug-31 13:33N 43°29' E 007°32'1716.9
2015-Aug-31 12:32N 43°17' E 007°49'1717.7
2015-Aug-31 11:33N 43°05' E 008°06'2117.6
2015-Aug-31 10:20N 42°50' E 008°27'2017.1
2015-Aug-31 09:11N 42°36' E 008°46'20 5.5
2015-Aug-31 05:27N 42°39' E 008°18'1615.9
2015-Aug-31 04:26N 42°42' E 007°57'6215.7
2015-Aug-31 00:30N 42°53' E 006°34'2911.9
2015-Aug-30 22:05N 43°04' E 005°58'3 5.5
2015-Aug-30 21:33N 43°07' E 005°56'0 0.0
2015-Aug-30 20:33N 43°07' E 005°56'5613.5
2015-Aug-30 16:24N 42°48' E 007°08'61 8.9
2015-Aug-30 09:30N 42°46' E 008°32'5817.1
2015-Aug-30 06:08N 43°27' E 007°36'1017.0
2015-Aug-30 05:33N 43°34' E 007°26'1010.4
2015-Aug-30 04:33N 43°42' E 007°17'3 2.4
2015-Aug-30 03:23N 43°39' E 007°18'911.1
2015-Aug-30 02:33N 43°33' E 007°28'10 8.0
2015-Aug-30 01:15N 43°27' E 007°39'1111.4
2015-Aug-30 00:16N 43°20' E 007°51'3111.4
2015-Aug-29 21:31N 43°00' E 008°25'108 8.6
2015-Aug-29 09:04N 43°04' E 005°58'3 5.6
2015-Aug-29 08:33N 43°07' E 005°56'0 0.0
2015-Aug-29 07:33N 43°07' E 005°56'0 0.0
2015-Aug-29 06:33N 43°07' E 005°56'2 2.3
2015-Aug-29 05:34N 43°05' E 005°58'3115.4
2015-Aug-29 03:33N 42°53' E 006°36'55 4.2
2015-Aug-28 14:28N 43°28' E 007°33'1617.1
2015-Aug-28 13:33N 43°40' E 007°18'4 1.8
2015-Aug-28 11:33N 43°37' E 007°22'1917.8
2015-Aug-28 10:30N 43°24' E 007°40'2217.7
2015-Aug-28 09:16N 43°08' E 008°01'12 1.6
2015-Aug-28 01:23N 42°60' E 008°13'4817.1
2015-Aug-27 22:33N 43°34' E 007°26'1010.0
2015-Aug-27 21:33N 43°42' E 007°17'3 2.5
2015-Aug-27 20:33N 43°39' E 007°18'64 7.1
2015-Aug-27 11:32N 42°59' E 008°26'1616.6
2015-Aug-27 10:33N 43°09' E 008°08'1717.5
2015-Aug-27 09:33N 43°20' E 007°50'1817.9
2015-Aug-27 08:34N 43°31' E 007°31'1414.0
2015-Aug-27 07:33N 43°42' E 007°17'0 0.0
2015-Aug-27 06:33N 43°42' E 007°17'0 0.0
2015-Aug-27 05:33N 43°42' E 007°17'16 7.8
2015-Aug-27 03:33N 43°31' E 007°32'1712.1
2015-Aug-27 02:10N 43°20' E 007°50'710.7
2015-Aug-27 01:33N 43°17' E 007°58'15 7.2
2015-Aug-26 23:31N 43°06' E 008°13'57 5.0
2015-Aug-26 12:08N 42°51' E 006°59'1017.0
2015-Aug-26 11:31N 42°52' E 006°44'1616.8
2015-Aug-26 10:34N 42°54' E 006°22'2116.0
2015-Aug-26 09:16N 43°04' E 005°58'3 3.6
2015-Aug-26 08:29N 43°07' E 005°56'0 0.0
2015-Aug-26 07:29N 43°07' E 005°56'2 2.3
2015-Aug-26 06:33N 43°05' E 005°58'18510.8
2015-Aug-25 13:27N 43°25' E 010°10'1011.0
2015-Aug-25 12:33N 43°33' E 010°18'143 9.4
2015-Aug-24 21:19N 42°58' E 007°08'1317.1
2015-Aug-24 20:32N 42°57' E 006°50'4113.6
2015-Aug-24 17:33N 43°07' E 005°56'0 0.0
2015-Aug-24 16:33N 43°07' E 005°56'  
Track history (hours):
 
Tides and Currents Weather Stations Pressure Air Temp Water Temp Dewpoint Dewpoint Depression Visibility Wind Speed Wind Dir Waves Ship Positions

Sardinia Vera

Last reported at 2015-Sep-03 16:26 UTC. Time now 2015-Sep-03 17:17 UTC.
Position N 43°08' E 008°02'.

; draft 5.3 m.

Type: Passenger vessel. MMSI: 247392000.

Date/timePositionNaut miles runAvg speedWind from/ knotsBaromVisibWave heightAir tempDewpointWater temp
2015-Sep-03 16:26N 43°08' E 008°02'1617.0
2015-Sep-03 15:31N 42°57' E 008°17'60 6.5
2015-Sep-03 06:21N 43°39' E 007°19'3 3.3
2015-Sep-03 05:34N 43°42' E 007°17'0 0.0
2015-Sep-03 04:14N 43°42' E 007°17'0 0.0
2015-Sep-03 03:34N 43°42' E 007°17'0 0.0
2015-Sep-03 02:33N 43°42' E 007°17'0 0.0
2015-Sep-03 01:26N 43°42' E 007°17'0 0.0
2015-Sep-03 00:34N 43°42' E 007°17'0 0.0
2015-Sep-02 23:33N 43°42' E 007°17'0 0.0
2015-Sep-02 22:33N 43°42' E 007°17'0 0.0
2015-Sep-02 21:34N 43°42' E 007°17'0 0.0
2015-Sep-02 20:33N 43°42' E 007°17'0 0.0
2015-Sep-02 19:28N 43°42' E 007°17'1313.6
2015-Sep-02 18:30N 43°32' E 007°29'8 0.6
2015-Sep-02 06:33N 43°37' E 007°21'6 5.5
2015-Sep-02 05:33N 43°42' E 007°17'0 0.0
2015-Sep-02 04:33N 43°42' E 007°17'0 0.0
2015-Sep-02 03:33N 43°42' E 007°17'0 0.0
2015-Sep-02 02:31N 43°42' E 007°17'0 0.0
2015-Sep-02 01:33N 43°42' E 007°17'0 0.0
2015-Sep-02 00:33N 43°42' E 007°17'0 0.0
2015-Sep-01 23:33N 43°42' E 007°17'0 0.0
2015-Sep-01 22:26N 43°42' E 007°17'0 0.0
2015-Sep-01 20:22N 43°42' E 007°17'5 3.0
2015-Sep-01 18:33N 43°37' E 007°21'4016.8
2015-Sep-01 16:11N 43°09' E 008°00'27 3.0
2015-Sep-01 07:17N 43°28' E 007°34'1217.1
2015-Sep-01 06:33N 43°37' E 007°22'6 4.9
2015-Sep-01 05:18N 43°42' E 007°17'0 0.0
2015-Sep-01 04:30N 43°42' E 007°17'0 0.0
2015-Sep-01 03:18N 43°42' E 007°17'0 0.0
2015-Sep-01 02:30N 43°42' E 007°17'0 0.0
2015-Aug-31 23:30N 43°42' E 007°17'0 0.0
2015-Aug-31 22:30N 43°42' E 007°17'0 0.0
2015-Aug-31 20:30N 43°42' E 007°17'0 0.0
2015-Aug-31 19:30N 43°42' E 007°17'0 0.0
2015-Aug-31 18:30N 43°42' E 007°17'0 0.0
2015-Aug-31 17:33N 43°42' E 007°17'0 0.0
2015-Aug-31 16:32N 43°42' E 007°17'0 0.0
2015-Aug-31 15:33N 43°42' E 007°17'1 0.5
2015-Aug-31 14:33N 43°41' E 007°17'1615.7
2015-Aug-31 13:33N 43°29' E 007°32'1716.9
2015-Aug-31 12:32N 43°17' E 007°49'1717.7
2015-Aug-31 11:33N 43°05' E 008°06'2117.6
2015-Aug-31 10:20N 42°50' E 008°27'2017.1
2015-Aug-31 09:11N 42°36' E 008°46'20 5.5
2015-Aug-31 05:27N 42°39' E 008°18'1615.9
2015-Aug-31 04:26N 42°42' E 007°57'6215.7
2015-Aug-31 00:30N 42°53' E 006°34'2911.9
2015-Aug-30 22:05N 43°04' E 005°58'3 5.5
2015-Aug-30 21:33N 43°07' E 005°56'0 0.0
2015-Aug-30 20:33N 43°07' E 005°56'5613.5
2015-Aug-30 16:24N 42°48' E 007°08'61 8.9
2015-Aug-30 09:30N 42°46' E 008°32'5817.1
2015-Aug-30 06:08N 43°27' E 007°36'1017.0
2015-Aug-30 05:33N 43°34' E 007°26'1010.4
2015-Aug-30 04:33N 43°42' E 007°17'3 2.4
2015-Aug-30 03:23N 43°39' E 007°18'911.1
2015-Aug-30 02:33N 43°33' E 007°28'10 8.0
2015-Aug-30 01:15N 43°27' E 007°39'1111.4
2015-Aug-30 00:16N 43°20' E 007°51'3111.4
2015-Aug-29 21:31N 43°00' E 008°25'108 8.6
2015-Aug-29 09:04N 43°04' E 005°58'3 5.6
2015-Aug-29 08:33N 43°07' E 005°56'0 0.0
2015-Aug-29 07:33N 43°07' E 005°56'0 0.0
2015-Aug-29 06:33N 43°07' E 005°56'2 2.3
2015-Aug-29 05:34N 43°05' E 005°58'3115.4
2015-Aug-29 03:33N 42°53' E 006°36'55 4.2
2015-Aug-28 14:28N 43°28' E 007°33'1617.1
2015-Aug-28 13:33N 43°40' E 007°18'4 1.8
2015-Aug-28 11:33N 43°37' E 007°22'1917.8
2015-Aug-28 10:30N 43°24' E 007°40'2217.7
2015-Aug-28 09:16N 43°08' E 008°01'12 1.6
2015-Aug-28 01:23N 42°60' E 008°13'4817.1
2015-Aug-27 22:33N 43°34' E 007°26'1010.0
2015-Aug-27 21:33N 43°42' E 007°17'3 2.5
2015-Aug-27 20:33N 43°39' E 007°18'64 7.1
2015-Aug-27 11:32N 42°59' E 008°26'1616.6
2015-Aug-27 10:33N 43°09' E 008°08'1717.5
2015-Aug-27 09:33N 43°20' E 007°50'1817.9
2015-Aug-27 08:34N 43°31' E 007°31'1414.0
2015-Aug-27 07:33N 43°42' E 007°17'0 0.0
2015-Aug-27 06:33N 43°42' E 007°17'0 0.0
2015-Aug-27 05:33N 43°42' E 007°17'16 7.8
2015-Aug-27 03:33N 43°31' E 007°32'1712.1
2015-Aug-27 02:10N 43°20' E 007°50'710.7
2015-Aug-27 01:33N 43°17' E 007°58'15 7.2
2015-Aug-26 23:31N 43°06' E 008°13'57 5.0
2015-Aug-26 12:08N 42°51' E 006°59'1017.0
2015-Aug-26 11:31N 42°52' E 006°44'1616.8
2015-Aug-26 10:34N 42°54' E 006°22'2116.0
2015-Aug-26 09:16N 43°04' E 005°58'3 3.6
2015-Aug-26 08:29N 43°07' E 005°56'0 0.0
2015-Aug-26 07:29N 43°07' E 005°56'2 2.3
2015-Aug-26 06:33N 43°05' E 005°58'18510.8
2015-Aug-25 13:27N 43°25' E 010°10'1011.0
2015-Aug-25 12:33N 43°33' E 010°18'143 9.4
2015-Aug-24 21:19N 42°58' E 007°08'1317.1
2015-Aug-24 20:32N 42°57' E 006°50'4113.6
2015-Aug-24 17:33N 43°07' E 005°56'0 0.0
2015-Aug-24 16:33N 43°07' E 005°56'  

Dump ship's entire track history